createdAt,value
2022-09-17T00:03:10.613Z,86.32
2022-09-17T00:06:35.499Z,86.30
2022-09-17T00:09:23.013Z,85.91
2022-09-17T00:12:02.461Z,86.11
2022-09-17T00:14:53.052Z,86.26
2022-09-17T00:17:35.478Z,85.90
2022-09-17T00:20:13.246Z,85.79
2022-09-17T00:22:43.498Z,85.84
2022-09-17T00:25:25.301Z,85.95
2022-09-17T00:28:05.440Z,86.31
2022-09-17T00:30:49.104Z,86.70
2022-09-17T00:33:31.371Z,86.80
2022-09-17T00:36:39.544Z,86.79
2022-09-17T00:39:18.415Z,87.08
2022-09-17T00:42:16.168Z,87.27
2022-09-17T00:45:07.889Z,87.11
2022-09-17T00:47:51.769Z,87.43
2022-09-17T00:50:44.331Z,87.54
2022-09-17T00:53:47.774Z,87.00
2022-09-17T00:56:27.841Z,86.86
2022-09-17T00:59:03.402Z,87.07
2022-09-17T01:01:56.215Z,87.54
2022-09-17T01:04:51.109Z,87.73
2022-09-17T01:08:07.555Z,87.36
2022-09-17T01:11:26.890Z,87.15
2022-09-17T01:14:22.897Z,87.00
2022-09-17T01:21:23.031Z,87.02
2022-09-17T01:24:23.538Z,87.21
2022-09-17T01:27:58.082Z,87.21
2022-09-17T01:31:02.317Z,87.59
2022-09-17T01:33:46.207Z,87.95
2022-09-17T01:36:52.462Z,88.81
2022-09-17T01:39:57.860Z,89.73
2022-09-17T01:43:26.521Z,89.81
2022-09-17T01:46:04.521Z,89.67
2022-09-17T01:48:44.151Z,89.29
2022-09-17T01:51:43.576Z,88.98
2022-09-17T01:54:40.389Z,89.07
2022-09-17T01:57:30.643Z,88.94
2022-09-17T02:00:25.214Z,88.86
2022-09-17T02:03:48.108Z,88.81
2022-09-17T02:06:35.904Z,88.99
2022-09-17T02:09:36.326Z,89.67
2022-09-17T02:12:38.380Z,89.13
2022-09-17T02:15:15.193Z,88.72
2022-09-17T02:17:49.459Z,88.67
2022-09-17T02:20:29.970Z,88.98
2022-09-17T02:23:14.213Z,89.17
2022-09-17T02:26:01.727Z,88.75
2022-09-17T02:29:02.456Z,88.76
2022-09-17T02:31:55.799Z,88.56
2022-09-17T02:34:36.409Z,88.52
2022-09-17T02:37:12.652Z,88.70
2022-09-17T02:40:00.681Z,89.11
2022-09-17T02:43:07.595Z,89.94
2022-09-17T02:45:56.626Z,89.91
2022-09-17T02:48:59.937Z,90.30
2022-09-17T02:51:53.693Z,90.54
2022-09-17T02:55:01.014Z,90.56
2022-09-17T02:58:13.732Z,90.22
2022-09-17T03:00:43.267Z,90.21
2022-09-17T03:03:19.774Z,90.44
2022-09-17T03:09:20.139Z,90.08
2022-09-17T03:12:21.394Z,89.88
2022-09-17T03:14:59.253Z,90.10
2022-09-17T03:17:30.005Z,91.08
2022-09-17T03:19:58.315Z,90.66
2022-09-17T03:22:53.751Z,90.51
2022-09-17T03:25:39.283Z,90.75
2022-09-17T03:28:27.510Z,91.87
2022-09-17T03:31:02.902Z,91.01
2022-09-17T03:33:32.861Z,90.66
2022-09-17T03:36:02.119Z,90.60
2022-09-17T03:38:48.328Z,90.63
2022-09-17T03:41:34.832Z,91.38
2022-09-17T03:44:11.366Z,92.06
2022-09-17T03:46:40.624Z,91.25
2022-09-17T03:49:52.343Z,91.05
2022-09-17T03:52:30.742Z,90.86
2022-09-17T03:55:18.710Z,90.91
2022-09-17T03:57:48.538Z,91.70
2022-09-17T04:00:25.167Z,91.61
2022-09-17T04:03:12.562Z,91.35
2022-09-17T04:06:43.493Z,91.18
2022-09-17T04:09:13.694Z,91.37
2022-09-17T04:11:51.360Z,91.22
2022-09-17T04:14:31.101Z,91.57
2022-09-17T04:17:00.942Z,92.08
2022-09-17T04:19:48.758Z,91.84
2022-09-17T04:22:25.198Z,91.52
2022-09-17T04:25:35.261Z,91.47
2022-09-17T04:28:23.323Z,91.60
2022-09-17T04:30:54.056Z,91.29
2022-09-17T04:33:27.863Z,91.42
2022-09-17T04:36:06.197Z,91.40
2022-09-17T04:38:53.804Z,91.90
2022-09-17T04:41:33.655Z,91.96
2022-09-17T04:44:22.003Z,92.46
2022-09-17T04:47:02.291Z,93.16
2022-09-17T04:49:48.855Z,92.83
2022-09-17T04:52:30.847Z,92.54
2022-09-17T04:55:08.756Z,92.66
2022-09-17T04:57:47.181Z,92.16
2022-09-17T05:00:38.721Z,92.13
2022-09-17T05:03:35.346Z,92.49
2022-09-17T05:06:10.586Z,92.39
2022-09-17T05:08:54.049Z,92.83
2022-09-17T05:11:29.583Z,93.11
2022-09-17T05:14:08.754Z,92.62
2022-09-17T05:16:44.702Z,93.08
2022-09-17T05:19:20.120Z,93.45
2022-09-17T05:22:06.763Z,93.37
2022-09-17T05:25:00.492Z,93.42
2022-09-17T05:27:33.529Z,93.08
2022-09-17T05:30:19.141Z,92.88
2022-09-17T05:33:06.875Z,93.07
2022-09-17T05:35:38.220Z,92.74
2022-09-17T05:38:09.735Z,92.35
2022-09-17T05:40:43.863Z,91.92
2022-09-17T05:43:41.816Z,91.77
2022-09-17T05:46:21.144Z,91.14
2022-09-17T05:49:10.449Z,90.46
2022-09-17T05:51:59.173Z,90.28
2022-09-17T05:54:36.583Z,89.18
2022-09-17T05:57:23.264Z,88.64
2022-09-17T06:00:12.887Z,88.29
2022-09-17T06:02:40.875Z,87.94
2022-09-17T06:05:12.262Z,87.37
2022-09-17T06:07:45.756Z,86.79
2022-09-17T06:11:00.213Z,86.68
2022-09-17T06:13:31.064Z,86.31
2022-09-17T06:16:21.407Z,86.04
2022-09-17T06:18:53.038Z,86.02
2022-09-17T06:21:24.060Z,85.33
2022-09-17T06:24:17.888Z,85.28
2022-09-17T06:26:58.817Z,84.71
2022-09-17T06:29:49.635Z,84.66
2022-09-17T06:32:43.572Z,83.51
2022-09-17T06:35:27.330Z,82.74
2022-09-17T06:38:18.948Z,82.34
2022-09-17T06:41:05.989Z,82.23
2022-09-17T06:43:43.726Z,80.30
2022-09-17T06:46:40.010Z,80.32
2022-09-17T06:49:10.729Z,80.95
2022-09-17T06:52:01.847Z,79.94
2022-09-17T06:54:41.350Z,78.32
2022-09-17T06:57:31.044Z,78.49
2022-09-17T07:00:02.418Z,78.49
2022-09-17T07:03:00.489Z,77.60
2022-09-17T07:05:41.129Z,77.01
2022-09-17T07:08:17.693Z,76.50
2022-09-17T07:11:08.349Z,75.77
2022-09-17T07:14:00.534Z,75.87
2022-09-17T07:16:35.879Z,75.85
2022-09-17T07:19:05.521Z,76.05
2022-09-17T07:21:40.172Z,76.22
2022-09-17T07:24:11.069Z,76.94
2022-09-17T07:27:00.547Z,77.50
2022-09-17T07:30:21.108Z,78.09
2022-09-17T07:33:12.171Z,78.28
2022-09-17T07:39:46.352Z,79.28
2022-09-17T07:42:20.382Z,79.36
2022-09-17T07:44:52.860Z,79.53
2022-09-17T07:47:48.411Z,79.62
2022-09-17T07:50:43.292Z,79.86
2022-09-17T07:53:48.457Z,79.85
2022-09-17T07:56:51.324Z,79.92
2022-09-17T08:03:20.428Z,80.27
2022-09-17T08:06:19.814Z,80.01
2022-09-17T08:09:06.960Z,79.89
2022-09-17T08:11:56.457Z,79.76
2022-09-17T08:14:29.926Z,79.50
2022-09-17T08:17:10.793Z,79.41
2022-09-17T08:19:54.399Z,79.37
2022-09-17T08:22:50.175Z,78.82
2022-09-17T08:26:19.575Z,79.18
2022-09-17T08:29:08.339Z,79.14
2022-09-17T08:31:48.246Z,79.27
2022-09-17T08:35:03.341Z,79.72
2022-09-17T08:37:50.677Z,79.73
2022-09-17T08:40:51.580Z,80.06
2022-09-17T08:43:28.908Z,79.99
2022-09-17T08:46:21.303Z,80.09
2022-09-17T08:49:34.729Z,80.24
2022-09-17T08:52:36.345Z,80.19
2022-09-17T08:55:36.281Z,80.09
2022-09-17T08:58:35.531Z,80.09
2022-09-17T09:01:56.802Z,79.81
2022-09-17T09:04:49.650Z,79.88
2022-09-17T09:07:49.941Z,78.50
2022-09-17T09:10:54.512Z,77.65
2022-09-17T09:14:03.078Z,77.26
2022-09-17T09:19:34.589Z,77.61
2022-09-17T09:22:29.442Z,77.87
2022-09-17T09:25:23.893Z,78.68
2022-09-17T09:28:36.645Z,79.69
2022-09-17T09:31:28.357Z,80.23
2022-09-17T09:34:39.937Z,80.76
2022-09-17T09:37:35.568Z,80.15
2022-09-17T09:40:57.013Z,79.12
2022-09-17T09:44:09.050Z,78.24
2022-09-17T09:47:29.198Z,76.90
2022-09-17T09:51:05.580Z,75.74
2022-09-17T09:58:47.833Z,76.13
2022-09-17T10:02:04.134Z,75.84
2022-09-17T10:04:53.267Z,74.29
2022-09-17T10:07:51.311Z,74.29
2022-09-17T10:11:28.167Z,74.93
2022-09-17T10:14:25.405Z,75.13
2022-09-17T10:17:28.478Z,75.18
2022-09-17T10:20:22.938Z,75.25
2022-09-17T10:23:00.156Z,75.08
2022-09-17T10:25:42.481Z,73.63
2022-09-17T10:28:47.599Z,72.69
2022-09-17T10:31:43.427Z,72.06
2022-09-17T10:34:22.604Z,72.79
2022-09-17T10:37:43.965Z,73.71
2022-09-17T10:40:32.646Z,75.10
2022-09-17T10:43:18.181Z,75.68
2022-09-17T10:46:04.483Z,76.21
2022-09-17T10:48:50.259Z,76.77
2022-09-17T10:51:45.211Z,76.68
2022-09-17T10:54:59.711Z,76.43
2022-09-17T10:57:55.906Z,76.69
2022-09-17T11:01:08.601Z,76.06
2022-09-17T11:03:36.965Z,76.43
2022-09-17T11:06:32.097Z,77.96
2022-09-17T11:09:35.620Z,78.96
2022-09-17T11:12:45.259Z,79.68
2022-09-17T11:16:09.668Z,79.86
2022-09-17T11:19:11.105Z,79.11
2022-09-17T11:21:57.475Z,77.44
2022-09-17T11:25:00.334Z,76.91
2022-09-17T11:28:37.665Z,76.28
2022-09-17T11:31:13.948Z,76.03
2022-09-17T11:38:05.182Z,76.24
2022-09-17T11:41:07.626Z,76.43
2022-09-17T11:44:12.241Z,76.54
2022-09-17T11:47:35.721Z,77.02
2022-09-17T11:50:35.388Z,76.79
2022-09-17T11:53:53.401Z,76.99
2022-09-17T11:56:39.097Z,76.88
2022-09-17T11:59:29.698Z,76.92
2022-09-17T12:02:34.975Z,77.13
2022-09-17T12:05:40.428Z,76.63
2022-09-17T12:13:07.680Z,73.66
2022-09-17T12:16:08.034Z,73.26
2022-09-17T12:19:05.474Z,72.77
2022-09-17T12:21:54.865Z,72.87
2022-09-17T12:24:50.155Z,72.99
2022-09-17T12:28:14.626Z,72.43
2022-09-17T12:31:31.873Z,71.22
2022-09-17T12:35:22.928Z,71.92
2022-09-17T12:38:14.968Z,72.18
2022-09-17T12:41:17.757Z,71.02
2022-09-17T12:44:05.486Z,70.95
2022-09-17T12:46:57.241Z,71.63
2022-09-17T12:50:28.283Z,72.13
2022-09-17T12:53:23.918Z,72.35
2022-09-17T12:55:58.843Z,72.26
2022-09-17T12:59:10.318Z,72.33
2022-09-17T13:02:00.278Z,72.37
2022-09-17T13:05:12.993Z,72.40
2022-09-17T13:08:21.715Z,72.58
2022-09-17T13:11:28.724Z,72.35
2022-09-17T13:14:38.301Z,72.92
2022-09-17T13:17:39.832Z,73.54
2022-09-17T13:20:21.937Z,73.87
2022-09-17T13:23:07.330Z,73.66
2022-09-17T13:26:34.438Z,73.79
2022-09-17T13:29:16.015Z,74.06
2022-09-17T13:35:33.719Z,74.78
2022-09-17T13:38:15.881Z,75.07
2022-09-17T13:41:21.408Z,75.16
2022-09-17T13:43:57.607Z,75.56
2022-09-17T13:46:48.606Z,75.62
2022-09-17T13:49:50.282Z,75.76
2022-09-17T13:52:53.413Z,75.69
2022-09-17T13:56:09.158Z,75.85
2022-09-17T14:02:20.684Z,75.60
2022-09-17T14:05:39.675Z,76.01
2022-09-17T14:08:51.017Z,76.18
2022-09-17T14:11:52.129Z,76.24
2022-09-17T14:14:54.964Z,76.42
2022-09-17T14:17:56.601Z,76.71
2022-09-17T14:21:01.013Z,76.93
2022-09-17T14:23:58.484Z,77.05
2022-09-17T14:27:05.676Z,77.01
2022-09-17T14:30:19.798Z,77.03
2022-09-17T14:33:30.882Z,76.95
2022-09-17T14:36:28.845Z,77.01
2022-09-17T14:39:58.742Z,77.12
2022-09-17T14:42:47.934Z,77.22
2022-09-17T14:45:39.804Z,77.19
2022-09-17T14:48:36.791Z,77.40
2022-09-17T14:51:39.425Z,77.58
2022-09-17T14:54:36.934Z,77.86
2022-09-17T14:57:37.544Z,77.61
2022-09-17T15:00:18.811Z,76.90
2022-09-17T15:03:06.626Z,76.07
2022-09-17T15:06:15.898Z,75.99
2022-09-17T15:09:19.573Z,75.89
2022-09-17T15:12:00.731Z,75.93
2022-09-17T15:14:40.668Z,75.56
2022-09-17T15:17:29.100Z,75.84
2022-09-17T15:20:35.161Z,76.11
2022-09-17T15:24:11.780Z,75.97
2022-09-17T15:30:55.907Z,76.36
2022-09-17T15:33:59.756Z,76.51
2022-09-17T15:37:12.097Z,76.65
2022-09-17T15:39:56.959Z,76.98
2022-09-17T15:43:28.424Z,77.05
2022-09-17T15:46:57.347Z,77.34
2022-09-17T15:50:26.129Z,77.22
2022-09-17T15:53:30.421Z,77.37
2022-09-17T15:56:19.967Z,77.69
2022-09-17T15:59:50.716Z,77.46
2022-09-17T16:02:57.497Z,77.67
2022-09-17T16:06:04.638Z,77.39
2022-09-17T16:09:39.654Z,77.47
2022-09-17T16:13:12.807Z,77.48
2022-09-17T16:15:52.040Z,77.61
2022-09-17T16:18:45.364Z,77.90
2022-09-17T16:21:38.492Z,77.99
2022-09-17T16:24:23.857Z,78.16
2022-09-17T16:27:30.122Z,78.46
2022-09-17T16:30:59.545Z,78.40
2022-09-17T16:34:30.053Z,78.70
2022-09-17T16:38:14.621Z,79.01
2022-09-17T16:41:17.976Z,79.32
2022-09-17T16:44:34.036Z,79.52
2022-09-17T16:50:31.876Z,79.88
2022-09-17T16:53:28.791Z,80.13
2022-09-17T16:56:31.895Z,80.28
2022-09-17T16:59:24.402Z,80.57
2022-09-17T17:02:32.440Z,80.74
2022-09-17T17:05:45.783Z,80.92
2022-09-17T17:08:40.750Z,81.03
2022-09-17T17:11:29.171Z,81.22
2022-09-17T17:14:14.532Z,81.63
2022-09-17T17:16:44.843Z,81.64
2022-09-17T17:19:32.720Z,81.89
2022-09-17T17:22:37.782Z,82.18
2022-09-17T17:25:56.309Z,82.67
2022-09-17T17:28:54.826Z,82.83
2022-09-17T17:31:55.889Z,82.99
2022-09-17T17:34:31.403Z,83.20
2022-09-17T17:37:16.902Z,83.46
2022-09-17T17:40:00.038Z,83.52
2022-09-17T17:42:51.351Z,83.76
2022-09-17T17:45:45.202Z,83.84
2022-09-17T17:48:28.629Z,84.16
2022-09-17T17:51:09.727Z,84.31
2022-09-17T17:53:53.381Z,84.37
2022-09-17T17:56:37.000Z,84.54
2022-09-17T17:59:11.371Z,85.13
2022-09-17T18:02:06.456Z,85.13
2022-09-17T18:04:53.640Z,85.64
2022-09-17T18:07:57.347Z,85.61
2022-09-17T18:11:04.582Z,85.89
2022-09-17T18:13:42.126Z,85.85
2022-09-17T18:16:28.910Z,86.30
2022-09-17T18:19:10.314Z,86.96
2022-09-17T18:21:57.187Z,86.83
2022-09-17T18:24:52.688Z,86.88
2022-09-17T18:27:49.017Z,87.34
2022-09-17T18:31:00.177Z,87.67
2022-09-17T18:33:57.801Z,88.07
2022-09-17T18:36:51.227Z,88.00
2022-09-17T18:39:59.556Z,88.12
2022-09-17T18:43:00.146Z,88.24
2022-09-17T18:46:07.987Z,88.42
2022-09-17T18:49:05.268Z,88.28
2022-09-17T18:52:02.358Z,88.49
2022-09-17T18:54:57.555Z,88.58
2022-09-17T18:57:57.967Z,88.76
2022-09-17T19:00:57.423Z,88.77
2022-09-17T19:03:50.715Z,88.78
2022-09-17T19:06:37.153Z,88.79
2022-09-17T19:09:30.356Z,88.79
2022-09-17T19:12:09.107Z,89.13
2022-09-17T19:15:21.429Z,89.20
2022-09-17T19:18:30.685Z,89.27
2022-09-17T19:21:18.462Z,89.30
2022-09-17T19:24:04.344Z,89.39
2022-09-17T19:27:04.705Z,89.40
2022-09-17T19:29:58.636Z,89.22
2022-09-17T19:32:51.381Z,90.18
2022-09-17T19:35:41.566Z,90.55
2022-09-17T19:38:36.873Z,91.02
2022-09-17T19:41:37.443Z,91.06
2022-09-17T19:44:39.931Z,91.30
2022-09-17T19:47:50.176Z,91.31
2022-09-17T19:50:29.875Z,91.19
2022-09-17T19:53:12.771Z,91.35
2022-09-17T19:56:43.906Z,91.33
2022-09-17T19:59:49.827Z,91.42
2022-09-17T20:02:40.265Z,91.30
2022-09-17T20:05:09.056Z,91.29
2022-09-17T20:07:47.881Z,91.33
2022-09-17T20:10:43.587Z,91.66
2022-09-17T20:13:38.277Z,92.52
2022-09-17T20:16:52.612Z,92.49
2022-09-17T20:19:45.590Z,93.42
2022-09-17T20:22:25.526Z,92.91
2022-09-17T20:25:03.006Z,93.16
2022-09-17T20:27:55.534Z,94.14
2022-09-17T20:30:37.025Z,93.54
2022-09-17T20:33:20.029Z,93.63
2022-09-17T20:36:30.766Z,93.73
2022-09-17T20:39:21.087Z,93.69
2022-09-17T20:42:49.790Z,93.26
2022-09-17T20:45:29.434Z,93.10
2022-09-17T20:48:12.543Z,93.27
2022-09-17T20:51:03.897Z,93.02
2022-09-17T20:53:41.472Z,93.15
2022-09-17T20:56:18.264Z,93.37
2022-09-17T20:59:14.018Z,93.89
2022-09-17T21:01:50.965Z,93.75
2022-09-17T21:04:27.233Z,93.51
2022-09-17T21:07:02.193Z,93.57
2022-09-17T21:09:49.977Z,93.64
2022-09-17T21:12:27.766Z,94.43
2022-09-17T21:15:28.375Z,94.43
2022-09-17T21:18:07.369Z,94.20
2022-09-17T21:20:51.419Z,94.11
2022-09-17T21:23:29.774Z,94.17
2022-09-17T21:26:12.167Z,94.20
2022-09-17T21:29:20.087Z,94.36
2022-09-17T21:32:09.846Z,94.46
2022-09-17T21:35:02.914Z,94.40
2022-09-17T21:37:46.012Z,94.44
2022-09-17T21:40:44.899Z,94.42
2022-09-17T21:44:04.708Z,94.28
2022-09-17T21:46:59.816Z,94.33
2022-09-17T21:49:33.330Z,94.47
2022-09-17T21:52:56.192Z,94.51
2022-09-17T21:55:25.141Z,94.57
2022-09-17T21:58:14.026Z,94.58
2022-09-17T22:01:05.041Z,94.75
2022-09-17T22:03:32.214Z,94.85
2022-09-17T22:06:41.342Z,94.86
2022-09-17T22:09:32.631Z,94.93
2022-09-17T22:12:16.999Z,94.93
2022-09-17T22:15:09.207Z,95.16
2022-09-17T22:18:12.806Z,95.17
2022-09-17T22:20:55.691Z,95.26
2022-09-17T22:23:48.896Z,95.23
2022-09-17T22:29:40.228Z,95.26
2022-09-17T22:33:02.079Z,95.33
2022-09-17T22:35:50.248Z,95.39
2022-09-17T22:38:28.285Z,95.54
2022-09-17T22:41:45.000Z,95.50
2022-09-17T22:44:17.467Z,95.72
2022-09-17T22:46:58.073Z,95.69
2022-09-17T22:49:27.049Z,95.74
2022-09-17T22:52:03.964Z,95.57
2022-09-17T22:54:34.863Z,95.52
2022-09-17T22:57:14.897Z,95.29
2022-09-17T22:59:58.060Z,95.33
2022-09-17T23:03:50.236Z,95.26
2022-09-17T23:06:33.772Z,95.05
2022-09-17T23:09:36.271Z,95.24
2022-09-17T23:16:16.827Z,95.07
2022-09-17T23:19:09.574Z,94.90
2022-09-17T23:21:54.413Z,94.87
2022-09-17T23:27:25.170Z,94.91
2022-09-17T23:30:10.064Z,94.87
2022-09-17T23:33:02.636Z,95.13
2022-09-17T23:35:56.140Z,95.21
2022-09-17T23:38:53.714Z,95.25
2022-09-17T23:41:58.150Z,95.22
2022-09-17T23:44:59.131Z,95.30
2022-09-17T23:47:53.119Z,95.31
2022-09-17T23:50:33.462Z,95.54
2022-09-17T23:53:16.955Z,95.69
2022-09-17T23:56:08.336Z,95.66
2022-09-17T23:59:15.064Z,95.63
